Terminal Aerodrome Forecast
Issued by NWS

Home | Current Version | Previous Version | Graphics & Text | Print | Product List | Glossary On
Versions: 1 2 3 4 5 6 7 8 9 10 11 12 13 14 15 16
104
FTUS43 KMPX 091458 AAA
TAFRNH
TAF AMD
KRNH 091458Z 0915/1012 33012G18KT P6SM FEW050
     FM091800 33015G22KT P6SM SKC
     FM100100 32009KT P6SM SKC=

USA.gov is the U.S. government's official web portal to all federal, state and local government web resources and services.